createdAt,value
2017-07-09T00:00:11.678Z,55.05
2017-07-09T00:00:52.208Z,55.15
2017-07-09T00:01:32.734Z,55.03
2017-07-09T00:02:13.274Z,55.05
2017-07-09T00:02:53.799Z,55.15
2017-07-09T00:03:34.324Z,54.86
2017-07-09T00:04:14.830Z,55.05
2017-07-09T00:04:55.396Z,55.54
2017-07-09T00:05:35.903Z,55.25
2017-07-09T00:06:16.426Z,54.93
2017-07-09T00:06:56.972Z,55.71
2017-07-09T00:07:37.486Z,55.9
2017-07-09T00:08:18.010Z,55.8
2017-07-09T00:08:58.524Z,56.39
2017-07-09T00:09:39.106Z,56.39
2017-07-09T00:10:19.643Z,56.29
2017-07-09T00:11:00.174Z,56.29
2017-07-09T00:11:40.693Z,55.8
2017-07-09T00:12:21.225Z,56.39
2017-07-09T00:13:01.739Z,55.61
2017-07-09T00:13:42.288Z,56.39
2017-07-09T00:14:22.804Z,56.49
2017-07-09T00:15:03.347Z,55.8
2017-07-09T00:15:43.882Z,55.9
2017-07-09T00:16:24.457Z,55.61
2017-07-09T00:17:04.988Z,56.1
2017-07-09T00:17:45.548Z,56.1
2017-07-09T00:18:26.082Z,56.2
2017-07-09T00:19:06.596Z,55.61
2017-07-09T00:19:47.135Z,55.9
2017-07-09T00:20:27.646Z,56.49
2017-07-09T00:21:08.144Z,55.8
2017-07-09T00:21:48.666Z,56.16
2017-07-09T00:22:29.179Z,55.88
2017-07-09T00:23:09.675Z,56.26
2017-07-09T00:23:50.189Z,56.49
2017-07-09T00:24:30.715Z,55.71
2017-07-09T00:25:11.251Z,56.26
2017-07-09T00:25:51.770Z,55.61
2017-07-09T00:26:32.281Z,55.9
2017-07-09T00:27:12.800Z,55.68
2017-07-09T00:27:53.322Z,55.58
2017-07-09T00:28:33.852Z,55
2017-07-09T00:29:14.405Z,55.19
2017-07-09T00:29:54.974Z,55.19
2017-07-09T00:30:35.483Z,55.29
2017-07-09T00:31:16.019Z,55.39
2017-07-09T00:31:56.522Z,54.9
2017-07-09T00:32:37.042Z,55.58
2017-07-09T00:33:17.559Z,55.68
2017-07-09T00:33:58.088Z,55.78
2017-07-09T00:34:38.568Z,55.68
2017-07-09T00:35:19.091Z,56.36
2017-07-09T00:35:59.583Z,56.16
2017-07-09T00:36:40.157Z,56.26
2017-07-09T00:37:20.779Z,56.46
2017-07-09T00:38:01.299Z,57.04
2017-07-09T00:38:41.821Z,56.75
2017-07-09T00:39:22.313Z,56.82
2017-07-09T00:40:02.830Z,57.11
2017-07-09T00:40:43.340Z,57.14
2017-07-09T00:41:23.871Z,57.33
2017-07-09T00:42:04.406Z,57.4
2017-07-09T00:42:44.948Z,57.4
2017-07-09T00:43:25.621Z,57.98
2017-07-09T00:44:06.170Z,57.89
2017-07-09T00:44:46.648Z,58.08
2017-07-09T00:45:27.171Z,58.08
2017-07-09T00:46:07.658Z,58.18
2017-07-09T00:46:48.131Z,58.18
2017-07-09T00:47:28.629Z,58.37
2017-07-09T00:48:09.144Z,58.47
2017-07-09T00:48:49.683Z,58.57
2017-07-09T00:49:30.185Z,58.57
2017-07-09T00:50:10.730Z,58.76
2017-07-09T00:50:51.278Z,58.67
2017-07-09T00:51:31.761Z,58.47
2017-07-09T00:52:12.293Z,58.28
2017-07-09T00:52:52.826Z,58.57
2017-07-09T00:53:33.330Z,58.47
2017-07-09T00:54:13.836Z,58.28
2017-07-09T00:54:54.354Z,58.28
2017-07-09T00:55:34.838Z,58.47
2017-07-09T00:56:15.343Z,58.18
2017-07-09T00:56:55.873Z,58.37
2017-07-09T00:57:36.373Z,58.37
2017-07-09T00:58:16.916Z,58.21
2017-07-09T00:58:57.388Z,58.37
2017-07-09T00:59:37.917Z,58.28
2017-07-09T01:00:18.443Z,58.37
2017-07-09T01:00:58.968Z,58.37
2017-07-09T01:01:39.590Z,58.28
2017-07-09T01:02:20.115Z,58.37
2017-07-09T01:03:00.714Z,58.37
2017-07-09T01:03:41.178Z,58.28
2017-07-09T01:04:21.753Z,58.37
2017-07-09T01:05:02.238Z,58.18
2017-07-09T01:05:42.749Z,57.89
2017-07-09T01:06:23.281Z,57.98
2017-07-09T01:07:03.807Z,58.37
2017-07-09T01:07:44.320Z,58.08
2017-07-09T01:08:24.842Z,58.18
2017-07-09T01:09:05.373Z,57.89
2017-07-09T01:09:45.908Z,57.69
2017-07-09T01:10:26.440Z,58.08
2017-07-09T01:11:06.978Z,56.82
2017-07-09T01:11:47.486Z,55.65
2017-07-09T01:12:28.032Z,54.39
2017-07-09T01:13:08.575Z,55.07
2017-07-09T01:13:49.082Z,54.68
2017-07-09T01:14:29.606Z,54.39
2017-07-09T01:15:10.130Z,54.29
2017-07-09T01:15:50.642Z,54.39
2017-07-09T01:16:31.219Z,54.58
2017-07-09T01:17:11.750Z,53.03
2017-07-09T01:17:52.296Z,52.74
2017-07-09T01:18:32.809Z,52.74
2017-07-09T01:19:13.328Z,52.55
2017-07-09T01:19:53.829Z,52.74
2017-07-09T01:20:34.361Z,52.35
2017-07-09T01:21:14.871Z,52.55
2017-07-09T01:21:55.392Z,52.35
2017-07-09T01:22:35.915Z,51.97
2017-07-09T01:23:16.422Z,52.15
2017-07-09T01:23:56.945Z,52.06
2017-07-09T01:24:37.644Z,51.87
2017-07-09T01:25:18.170Z,51.77
2017-07-09T01:25:58.715Z,51.79
2017-07-09T01:26:39.234Z,51.97
2017-07-09T01:27:19.734Z,51.77
2017-07-09T01:28:00.251Z,51.89
2017-07-09T01:28:40.751Z,51.89
2017-07-09T01:29:21.271Z,51.97
2017-07-09T01:30:01.797Z,51.79
2017-07-09T01:30:42.328Z,52.09
2017-07-09T01:31:22.866Z,52.25
2017-07-09T01:32:03.388Z,52.45
2017-07-09T01:32:43.908Z,52.25
2017-07-09T01:33:24.433Z,52.25
2017-07-09T01:34:04.947Z,52.45
2017-07-09T01:34:45.469Z,52.84
2017-07-09T01:35:26.009Z,53.13
2017-07-09T01:36:06.523Z,53.71
2017-07-09T01:36:47.045Z,53.52
2017-07-09T01:37:27.576Z,53.42
2017-07-09T01:38:08.087Z,53.81
2017-07-09T01:38:48.610Z,54.1
2017-07-09T01:39:29.126Z,54.49
2017-07-09T01:40:09.664Z,54.97
2017-07-09T01:40:50.186Z,54.97
2017-07-09T01:41:31.355Z,55.17
2017-07-09T01:42:11.879Z,55.46
2017-07-09T01:42:52.403Z,55.75
2017-07-09T01:43:32.941Z,55.75
2017-07-09T01:44:13.463Z,56.72
2017-07-09T01:44:53.970Z,57.11
2017-07-09T01:45:34.484Z,57.67
2017-07-09T01:46:14.998Z,58.15
2017-07-09T01:46:55.573Z,59.7
2017-07-09T01:47:36.075Z,59.61
2017-07-09T01:48:16.597Z,59.8
2017-07-09T01:48:57.128Z,60.19
2017-07-09T01:49:37.649Z,60.55
2017-07-09T01:50:18.175Z,61.04
2017-07-09T01:50:58.757Z,60.94
2017-07-09T01:51:39.252Z,61.61
2017-07-09T01:52:19.764Z,61.61
2017-07-09T01:53:00.254Z,61.91
2017-07-09T01:53:40.765Z,61.71
2017-07-09T01:54:21.304Z,61.52
2017-07-09T01:55:01.823Z,61.81
2017-07-09T01:55:42.323Z,61.61
2017-07-09T01:56:22.854Z,61.81
2017-07-09T01:57:03.359Z,61.81
2017-07-09T01:57:43.861Z,61.91
2017-07-09T01:58:24.371Z,61.42
2017-07-09T01:59:04.846Z,61.71
2017-07-09T01:59:45.341Z,61.61
2017-07-09T02:00:25.866Z,61.52
2017-07-09T02:01:06.398Z,61.71
2017-07-09T02:01:46.853Z,61.61
2017-07-09T02:02:27.349Z,61.42
2017-07-09T02:03:07.861Z,61.22
2017-07-09T02:03:48.353Z,60.94
2017-07-09T02:04:28.866Z,60.64
2017-07-09T02:05:09.405Z,61.04
2017-07-09T02:05:49.942Z,60.84
2017-07-09T02:06:30.503Z,61.04
2017-07-09T02:07:11.054Z,60.64
2017-07-09T02:07:51.588Z,60.97
2017-07-09T02:08:32.125Z,60.84
2017-07-09T02:09:12.655Z,61.04
2017-07-09T02:09:53.195Z,61.71
2017-07-09T02:10:33.710Z,61.71
2017-07-09T02:11:14.228Z,61.91
2017-07-09T02:11:54.791Z,61.81
2017-07-09T02:12:35.307Z,61.52
2017-07-09T02:13:15.829Z,61.52
2017-07-09T02:13:56.344Z,61.52
2017-07-09T02:14:36.865Z,61.91
2017-07-09T02:15:17.385Z,61.91
2017-07-09T02:15:57.909Z,61.42
2017-07-09T02:16:38.433Z,61.61
2017-07-09T02:17:18.960Z,61.42
2017-07-09T02:17:59.488Z,61.91
2017-07-09T02:18:40.048Z,61.61
2017-07-09T02:19:20.566Z,61.68
2017-07-09T02:20:01.075Z,62.39
2017-07-09T02:20:41.685Z,61.91
2017-07-09T02:21:22.209Z,61.52
2017-07-09T02:22:02.731Z,61.61
2017-07-09T02:22:43.241Z,61.91
2017-07-09T02:23:23.774Z,61.81
2017-07-09T02:24:04.283Z,61.32
2017-07-09T02:24:44.816Z,61.61
2017-07-09T02:25:25.325Z,61.88
2017-07-09T02:26:05.849Z,61.22
2017-07-09T02:26:46.356Z,61.71
2017-07-09T02:27:26.878Z,62.07
2017-07-09T02:28:07.409Z,61.98
2017-07-09T02:28:47.943Z,62.26
2017-07-09T02:29:28.470Z,62.65
2017-07-09T02:30:09.005Z,61.81
2017-07-09T02:30:49.531Z,62.26
2017-07-09T02:31:30.041Z,62.01
2017-07-09T02:32:10.669Z,61.91
2017-07-09T02:32:51.187Z,62.1
2017-07-09T02:33:31.715Z,62.29
2017-07-09T02:34:12.292Z,62.1
2017-07-09T02:34:52.821Z,62.07
2017-07-09T02:35:33.375Z,62.46
2017-07-09T02:36:13.898Z,62.65
2017-07-09T02:36:54.415Z,62.36
2017-07-09T02:37:34.911Z,63.33
2017-07-09T02:38:15.462Z,62.82
2017-07-09T02:38:56.028Z,63.78
2017-07-09T02:39:36.532Z,64.72
2017-07-09T02:40:17.036Z,64.75
2017-07-09T02:40:57.591Z,64.72
2017-07-09T02:41:38.082Z,65.01
2017-07-09T02:43:31.201Z,65.59
2017-07-09T02:44:11.733Z,65.79
2017-07-09T02:44:52.221Z,65.2
2017-07-09T02:45:32.712Z,64.53
2017-07-09T02:46:13.223Z,64.92
2017-07-09T02:46:53.736Z,64.72
2017-07-09T02:47:34.280Z,64.24
2017-07-09T02:48:14.764Z,64.24
2017-07-09T02:48:55.276Z,64.24
2017-07-09T02:49:35.817Z,64.34
2017-07-09T02:50:16.382Z,63.65
2017-07-09T02:50:56.906Z,63.56
2017-07-09T02:51:37.425Z,63.65
2017-07-09T02:52:17.940Z,63.3
2017-07-09T02:52:58.484Z,63.1
2017-07-09T02:53:38.982Z,63.59
2017-07-09T02:54:19.496Z,63.01
2017-07-09T02:55:00.012Z,63.49
2017-07-09T02:55:40.523Z,63.59
2017-07-09T02:56:21.051Z,63.59
2017-07-09T02:57:01.592Z,63.59
2017-07-09T02:57:42.207Z,63.1
2017-07-09T02:58:22.627Z,63.49
2017-07-09T02:59:03.112Z,63.69
2017-07-09T02:59:43.631Z,63.01
2017-07-09T03:00:24.158Z,63.1
2017-07-09T03:01:04.669Z,63.49
2017-07-09T03:01:45.183Z,63.01
2017-07-09T03:02:25.690Z,63.4
2017-07-09T03:03:06.215Z,63.04
2017-07-09T03:03:46.753Z,62.95
2017-07-09T03:04:27.252Z,62.95
2017-07-09T03:05:07.774Z,63.04
2017-07-09T03:05:48.284Z,63.2
2017-07-09T03:06:28.832Z,63.53
2017-07-09T03:07:09.483Z,63.04
2017-07-09T03:07:50.001Z,63.13
2017-07-09T03:08:30.490Z,63.04
2017-07-09T03:09:11.004Z,63.13
2017-07-09T03:09:51.519Z,63.13
2017-07-09T03:10:32.026Z,63.04
2017-07-09T03:11:12.549Z,63.23
2017-07-09T03:11:53.048Z,63.23
2017-07-09T03:12:33.543Z,63.53
2017-07-09T03:13:14.047Z,62.55
2017-07-09T03:13:54.555Z,62.65
2017-07-09T03:14:35.063Z,63.13
2017-07-09T03:15:15.553Z,63.43
2017-07-09T03:15:56.095Z,63.04
2017-07-09T03:16:36.604Z,63.53
2017-07-09T03:17:17.122Z,63.04
2017-07-09T03:17:57.690Z,63.62
2017-07-09T03:18:38.192Z,63.62
2017-07-09T03:19:18.739Z,63.13
2017-07-09T03:19:59.248Z,63.23
2017-07-09T03:20:39.776Z,63.04
2017-07-09T03:21:20.296Z,63.04
2017-07-09T03:22:00.786Z,63.62
2017-07-09T03:22:41.291Z,63.53
2017-07-09T03:23:21.824Z,63.33
2017-07-09T03:24:02.383Z,63.23
2017-07-09T03:24:42.876Z,63.04
2017-07-09T03:26:56.120Z,62.55
2017-07-09T03:27:36.636Z,62.55
2017-07-09T03:28:17.175Z,62.78
2017-07-09T03:28:57.690Z,63.07
2017-07-09T03:29:38.194Z,62.95
2017-07-09T03:30:18.723Z,62.29
2017-07-09T03:30:59.241Z,62.68
2017-07-09T03:31:39.767Z,62.39
2017-07-09T03:32:20.231Z,62.01
2017-07-09T03:33:00.722Z,62.49
2017-07-09T03:33:41.238Z,62.98
2017-07-09T03:34:21.750Z,62.49
2017-07-09T03:35:02.253Z,62.68
2017-07-09T03:35:42.820Z,62.88
2017-07-09T03:36:23.338Z,62.95
2017-07-09T03:37:03.855Z,63.07
2017-07-09T03:37:44.385Z,63.26
2017-07-09T03:38:24.897Z,63.17
2017-07-09T03:39:05.417Z,63.07
2017-07-09T03:39:45.944Z,63.17
2017-07-09T03:40:26.444Z,63.46
2017-07-09T03:41:06.964Z,63.65
2017-07-09T03:41:47.484Z,63.46
2017-07-09T03:42:27.989Z,63.53
2017-07-09T03:43:08.526Z,62.88
2017-07-09T03:43:49.057Z,62.95
2017-07-09T03:44:29.577Z,63.43
2017-07-09T03:45:10.090Z,63.46
2017-07-09T03:45:50.615Z,64.01
2017-07-09T03:46:31.121Z,63.72
2017-07-09T03:47:11.642Z,63.43
2017-07-09T03:47:52.156Z,63.26
2017-07-09T03:48:32.673Z,63.75
2017-07-09T03:49:13.207Z,64.14
2017-07-09T03:49:53.741Z,64.2
2017-07-09T03:51:41.734Z,64.23
2017-07-09T03:52:22.266Z,64.5
2017-07-09T03:53:02.787Z,64.53
2017-07-09T03:53:43.313Z,64.33
2017-07-09T03:54:23.846Z,64.53
2017-07-09T03:55:04.397Z,64.72
2017-07-09T03:55:44.938Z,64.82
2017-07-09T03:56:25.448Z,64.72
2017-07-09T03:57:05.960Z,64.72
2017-07-09T03:57:46.507Z,64.82
2017-07-09T03:58:27.016Z,64.72
2017-07-09T03:59:07.517Z,64.72
2017-07-09T03:59:48.041Z,64.92
2017-07-09T04:00:28.588Z,64.82
2017-07-09T04:01:09.094Z,64.53
2017-07-09T04:01:49.721Z,64.92
2017-07-09T04:02:30.245Z,64.53
2017-07-09T04:03:10.775Z,64.53
2017-07-09T04:03:51.274Z,65.01
2017-07-09T04:04:31.791Z,64.62
2017-07-09T04:05:12.314Z,64.92
2017-07-09T04:05:52.829Z,64.82
2017-07-09T04:06:33.347Z,64.62
2017-07-09T04:07:13.897Z,64.82
2017-07-09T04:07:54.401Z,65.11
2017-07-09T04:08:34.936Z,64.72
2017-07-09T04:09:15.457Z,64.92
2017-07-09T04:09:55.972Z,64.82
2017-07-09T04:10:36.509Z,64.92
2017-07-09T04:11:17.030Z,64.92
2017-07-09T04:11:57.569Z,64.72
2017-07-09T04:12:38.089Z,64.62
2017-07-09T04:13:18.614Z,64.72
2017-07-09T04:13:59.165Z,64.72
2017-07-09T04:14:39.655Z,64.62
2017-07-09T04:15:20.174Z,64.82
2017-07-09T04:16:00.703Z,64.95
2017-07-09T04:16:41.229Z,64.62
2017-07-09T04:17:21.780Z,65.2
2017-07-09T04:18:02.297Z,64.95
2017-07-09T04:18:42.801Z,64.46
2017-07-09T04:19:23.328Z,65.05
2017-07-09T04:20:03.886Z,64.92
2017-07-09T04:20:44.395Z,64.56
2017-07-09T04:21:24.909Z,64.92
2017-07-09T04:22:05.435Z,65.11
2017-07-09T04:22:45.959Z,65.01
2017-07-09T04:23:26.479Z,65.11
2017-07-09T04:24:07.038Z,65.4
2017-07-09T04:24:47.548Z,65.3
2017-07-09T04:25:28.077Z,65.4
2017-07-09T04:26:08.609Z,65.79
2017-07-09T04:26:49.118Z,65.3
2017-07-09T04:27:29.639Z,65.3
2017-07-09T04:28:10.153Z,65.11
2017-07-09T04:28:50.749Z,65.01
2017-07-09T04:29:31.304Z,65.2
2017-07-09T04:30:11.841Z,64.82
2017-07-09T04:30:52.355Z,64.72
2017-07-09T04:31:32.871Z,64.56
2017-07-09T04:32:13.385Z,64.23
2017-07-09T04:32:53.889Z,64.62
2017-07-09T04:33:34.413Z,64.43
2017-07-09T04:34:14.946Z,64.23
2017-07-09T04:34:55.492Z,64.43
2017-07-09T04:35:35.996Z,64.72
2017-07-09T04:36:16.543Z,64.72
2017-07-09T04:36:57.069Z,64.75
2017-07-09T04:37:37.597Z,64.26
2017-07-09T04:38:18.123Z,64.62
2017-07-09T04:38:58.644Z,64.53
2017-07-09T04:39:39.171Z,64.53
2017-07-09T04:40:19.717Z,64.36
2017-07-09T04:41:00.247Z,64.04
2017-07-09T04:41:40.760Z,64.17
2017-07-09T04:42:21.319Z,63.78
2017-07-09T04:43:01.856Z,63.49
2017-07-09T04:43:42.371Z,63.88
2017-07-09T04:44:22.899Z,63.65
2017-07-09T04:46:41.313Z,63.85
2017-07-09T04:47:21.849Z,63.65
2017-07-09T04:48:02.465Z,63.65
2017-07-09T04:48:42.878Z,63.78
2017-07-09T04:49:23.391Z,63.59
2017-07-09T04:50:03.913Z,63.78
2017-07-09T04:50:44.417Z,64.07
2017-07-09T04:51:24.930Z,64.62
2017-07-09T04:52:05.450Z,64.82
2017-07-09T04:52:45.979Z,64.33
2017-07-09T04:53:26.495Z,64.17
2017-07-09T04:54:07.007Z,63.98
2017-07-09T04:54:47.535Z,63.59
2017-07-09T04:55:28.052Z,63.59
2017-07-09T04:56:08.565Z,63.88
2017-07-09T04:56:49.111Z,63.88
2017-07-09T04:57:29.640Z,63.56
2017-07-09T04:58:10.147Z,63.75
2017-07-09T04:58:50.650Z,63.68
2017-07-09T04:59:31.165Z,64.14
2017-07-09T05:00:11.692Z,64.92
2017-07-09T05:00:52.251Z,64.62
2017-07-09T05:01:32.756Z,64.62
2017-07-09T05:02:13.263Z,64.82
2017-07-09T05:02:53.801Z,64.53
2017-07-09T05:03:34.305Z,64.33
2017-07-09T05:04:14.814Z,64.46
2017-07-09T05:04:55.332Z,63.98
2017-07-09T05:05:35.840Z,63.78
2017-07-09T05:06:16.361Z,64.82
2017-07-09T05:06:56.881Z,64.43
2017-07-09T05:07:37.473Z,63.68
2017-07-09T05:08:17.999Z,63.78
2017-07-09T05:10:07.039Z,64.07
2017-07-09T05:10:47.533Z,64.36
2017-07-09T05:11:28.059Z,63.88
2017-07-09T05:12:08.560Z,63.78
2017-07-09T05:12:49.101Z,63.68
2017-07-09T05:13:29.613Z,63.68
2017-07-09T05:14:10.142Z,63.98
2017-07-09T05:14:50.651Z,63.88
2017-07-09T05:15:31.163Z,63.59
2017-07-09T05:16:11.713Z,63.49
2017-07-09T05:16:52.208Z,63.78
2017-07-09T05:17:32.715Z,63.88
2017-07-09T05:18:13.266Z,64.07
2017-07-09T05:18:53.782Z,63.49
2017-07-09T05:19:34.330Z,63.49
2017-07-09T05:20:14.868Z,63.39
2017-07-09T05:20:55.394Z,63.59
2017-07-09T05:21:35.881Z,63.2
2017-07-09T05:22:16.419Z,63.2
2017-07-09T05:22:56.937Z,63.13
2017-07-09T05:23:37.434Z,62.74
2017-07-09T05:24:17.948Z,62.74
2017-07-09T05:24:58.521Z,62.55
2017-07-09T05:25:39.035Z,62.26
2017-07-09T05:26:19.544Z,62.29
2017-07-09T05:27:00.045Z,62.29
2017-07-09T05:27:40.575Z,62.29
2017-07-09T05:28:21.069Z,62.77
2017-07-09T05:29:01.583Z,62.1
2017-07-09T05:29:42.079Z,62.19
2017-07-09T05:30:22.625Z,62.19
2017-07-09T05:31:03.166Z,62.38
2017-07-09T05:31:43.651Z,62.03
2017-07-09T05:32:24.206Z,61.32
2017-07-09T05:33:04.737Z,61.83
2017-07-09T05:33:45.271Z,61.54
2017-07-09T05:34:25.787Z,61.93
2017-07-09T05:35:06.315Z,61.15
2017-07-09T05:35:46.820Z,61.05
2017-07-09T05:36:27.365Z,60.7
2017-07-09T05:37:07.884Z,60.41
2017-07-09T05:37:48.465Z,60.38
2017-07-09T05:40:06.860Z,59.82
2017-07-09T05:40:47.364Z,60.21
2017-07-09T05:41:27.924Z,61.08
2017-07-09T05:42:08.464Z,60.08
2017-07-09T05:42:48.984Z,60.21
2017-07-09T05:43:29.504Z,60.79
2017-07-09T05:44:10.019Z,61.05
2017-07-09T05:44:50.552Z,61.74
2017-07-09T05:45:31.052Z,61.51
2017-07-09T05:46:11.555Z,61.61
2017-07-09T05:46:52.069Z,61.8
2017-07-09T05:47:32.595Z,61.8
2017-07-09T05:48:13.109Z,61.9
2017-07-09T05:48:53.617Z,61.51
2017-07-09T05:49:34.174Z,61.9
2017-07-09T05:50:14.707Z,61.8
2017-07-09T05:50:55.216Z,62.1
2017-07-09T05:51:35.750Z,62.29
2017-07-09T05:52:16.272Z,62.1
2017-07-09T05:52:56.765Z,62.29
2017-07-09T05:53:37.292Z,62.38
2017-07-09T05:54:17.967Z,62.48
2017-07-09T05:54:58.474Z,62.29
2017-07-09T05:55:39.006Z,62.29
2017-07-09T05:56:19.550Z,62.1
2017-07-09T05:57:00.081Z,62.19
2017-07-09T05:59:13.411Z,63.13
2017-07-09T05:59:53.938Z,63.23
2017-07-09T06:00:34.462Z,63.13
2017-07-09T06:01:15.021Z,63.71
2017-07-09T06:01:55.536Z,63.52
2017-07-09T06:02:36.061Z,63.81
2017-07-09T06:03:16.580Z,64.01
2017-07-09T06:03:57.101Z,64.01
2017-07-09T06:04:37.612Z,63.81
2017-07-09T06:05:18.132Z,63.81
2017-07-09T06:05:58.640Z,64.11
2017-07-09T06:06:39.160Z,64.4
2017-07-09T06:07:19.677Z,64.69
2017-07-09T06:09:38.074Z,64.11
2017-07-09T06:10:18.746Z,64.3
2017-07-09T06:10:59.215Z,63.91
2017-07-09T06:11:39.777Z,64.11
2017-07-09T06:12:20.251Z,63.81
2017-07-09T06:13:00.787Z,63.52
2017-07-09T06:13:41.298Z,63.52
2017-07-09T06:14:21.809Z,63.55
2017-07-09T06:15:02.329Z,63.13
2017-07-09T06:15:42.968Z,63.55
2017-07-09T06:16:23.496Z,63.45
2017-07-09T06:17:03.994Z,63.26
2017-07-09T06:17:44.551Z,63.45
2017-07-09T06:18:25.072Z,63.26
2017-07-09T06:19:05.646Z,63.45
2017-07-09T06:19:46.225Z,63.36
2017-07-09T06:20:26.693Z,63.26
2017-07-09T06:21:07.199Z,63.52
2017-07-09T06:21:47.795Z,63.07
2017-07-09T06:22:28.236Z,62.77
2017-07-09T06:23:08.751Z,62.58
2017-07-09T06:23:49.323Z,62.68
2017-07-09T06:24:29.836Z,62.38
2017-07-09T06:25:10.366Z,62.29
2017-07-09T06:25:50.879Z,62.58
2017-07-09T06:26:31.401Z,61.54
2017-07-09T06:27:11.916Z,61.83
2017-07-09T06:27:52.452Z,61.74
2017-07-09T06:28:32.957Z,61.44
2017-07-09T06:29:13.497Z,61.74
2017-07-09T06:29:54.005Z,61.35
2017-07-09T06:30:34.536Z,61.15
2017-07-09T06:31:15.039Z,60.96
2017-07-09T06:31:55.572Z,61.15
2017-07-09T06:32:36.075Z,61.54
2017-07-09T06:33:16.780Z,61.05
2017-07-09T06:33:57.304Z,60.96
2017-07-09T06:34:37.842Z,60.96
2017-07-09T06:35:18.334Z,61.25
2017-07-09T06:35:58.851Z,60.47
2017-07-09T06:36:39.381Z,61.15
2017-07-09T06:37:19.906Z,60.67
2017-07-09T06:38:00.440Z,60.77
2017-07-09T06:38:40.953Z,60.77
2017-07-09T06:39:21.469Z,60.67
2017-07-09T06:40:02.021Z,60.38
2017-07-09T06:40:42.530Z,60.57
2017-07-09T06:41:23.038Z,61.35
2017-07-09T06:42:03.536Z,60.21
2017-07-09T06:42:44.069Z,61.05
2017-07-09T06:43:24.587Z,61.05
2017-07-09T06:44:05.390Z,61.05
2017-07-09T06:44:45.795Z,60.96
2017-07-09T06:45:26.991Z,60.99
2017-07-09T06:46:08.355Z,61.15
2017-07-09T06:46:48.870Z,61.15
2017-07-09T06:47:29.370Z,60.67
2017-07-09T06:48:10.149Z,61.08
2017-07-09T06:48:50.507Z,60.99
2017-07-09T06:49:31.006Z,60.7
2017-07-09T06:50:11.517Z,60.5
2017-07-09T06:50:52.049Z,60.6
2017-07-09T06:51:32.542Z,60.99
2017-07-09T06:52:13.059Z,60.89
2017-07-09T06:52:53.576Z,60.7
2017-07-09T06:53:34.139Z,60.7
2017-07-09T06:54:14.658Z,60.89
2017-07-09T06:54:55.152Z,60.6
2017-07-09T06:55:35.681Z,61.08
2017-07-09T06:56:16.225Z,60.21
2017-07-09T06:56:56.838Z,60.11
2017-07-09T06:57:37.462Z,60.21
2017-07-09T06:58:17.954Z,59.82
2017-07-09T06:58:58.475Z,60.11
2017-07-09T06:59:39.064Z,60.31
2017-07-09T07:00:19.530Z,59.82
2017-07-09T07:01:00.073Z,60.02
2017-07-09T07:01:40.604Z,60.89
2017-07-09T07:02:21.096Z,60.31
2017-07-09T07:03:01.543Z,60.7
2017-07-09T07:03:42.074Z,60.5
2017-07-09T07:04:22.666Z,60.41
2017-07-09T07:05:03.085Z,60.7
2017-07-09T07:05:43.598Z,60.89
2017-07-09T07:06:24.097Z,60.6
2017-07-09T07:07:05.370Z,60.99
2017-07-09T07:07:45.945Z,60.7
2017-07-09T07:08:26.549Z,60.41
2017-07-09T07:09:06.993Z,60.6
2017-07-09T07:09:47.531Z,60.7
2017-07-09T07:10:28.072Z,60.11
2017-07-09T07:11:08.568Z,60.02
2017-07-09T07:11:49.078Z,60.02
2017-07-09T07:12:29.586Z,59.82
2017-07-09T07:13:10.143Z,60.02
2017-07-09T07:13:50.672Z,60.11
2017-07-09T07:14:31.186Z,59.66
2017-07-09T07:15:11.714Z,59.75
2017-07-09T07:15:52.250Z,59.46
2017-07-09T07:16:32.767Z,59.66
2017-07-09T07:17:13.321Z,59.56
2017-07-09T07:17:53.821Z,59.75
2017-07-09T07:18:34.340Z,59.75
2017-07-09T07:19:14.875Z,59.66
2017-07-09T07:19:55.361Z,58.87
2017-07-09T07:20:35.917Z,58.61
2017-07-09T07:21:16.393Z,58.71
2017-07-09T07:21:56.926Z,58.61
2017-07-09T07:22:37.459Z,58.32
2017-07-09T07:23:17.970Z,58.71
2017-07-09T07:23:58.495Z,58.51
2017-07-09T07:24:39.017Z,59
2017-07-09T07:25:19.532Z,58.81
2017-07-09T07:26:00.061Z,58.81
2017-07-09T07:26:40.558Z,58.81
2017-07-09T07:27:21.071Z,58.64
2017-07-09T07:28:01.592Z,58.25
2017-07-09T07:28:42.122Z,58.84
2017-07-09T07:29:22.660Z,58.64
2017-07-09T07:30:03.208Z,58.64
2017-07-09T07:30:43.691Z,58.64
2017-07-09T07:31:24.243Z,58.74
2017-07-09T07:32:04.768Z,58.74
2017-07-09T07:32:45.272Z,58.74
2017-07-09T07:33:25.772Z,59.13
2017-07-09T07:34:06.302Z,59
2017-07-09T07:34:46.796Z,58.64
2017-07-09T07:35:27.324Z,59.1
2017-07-09T07:36:07.857Z,59
2017-07-09T07:36:48.411Z,59.1
2017-07-09T07:37:28.921Z,59.88
2017-07-09T07:38:09.441Z,59.49
2017-07-09T07:38:49.973Z,59.69
2017-07-09T07:39:30.516Z,59.88
2017-07-09T07:40:11.070Z,60.08
2017-07-09T07:40:51.605Z,60.36
2017-07-09T07:41:32.134Z,60.27
2017-07-09T07:42:12.674Z,59.98
2017-07-09T07:42:53.199Z,59.88
2017-07-09T07:43:33.720Z,59.49
2017-07-09T07:44:14.274Z,59.13
2017-07-09T07:44:54.817Z,58.74
2017-07-09T07:45:35.341Z,58.45
2017-07-09T07:46:15.870Z,58.18
2017-07-09T07:46:56.387Z,57.79
2017-07-09T07:47:36.913Z,57.79
2017-07-09T07:48:17.433Z,56.85
2017-07-09T07:48:57.956Z,57.11
2017-07-09T07:49:38.505Z,57.5
2017-07-09T07:50:19.084Z,56.65
2017-07-09T07:50:59.649Z,56.56
2017-07-09T07:51:40.200Z,56.46
2017-07-09T07:52:20.730Z,56.16
2017-07-09T07:53:01.277Z,56.65
2017-07-09T07:53:41.799Z,56.56
2017-07-09T07:54:22.328Z,56.65
2017-07-09T07:55:02.861Z,56.46
2017-07-09T07:55:43.390Z,56.16
2017-07-09T07:56:23.917Z,56.46
2017-07-09T07:57:04.462Z,56.46
2017-07-09T07:57:44.993Z,56.36
2017-07-09T07:58:25.521Z,56.46
2017-07-09T07:59:06.052Z,56.2
2017-07-09T07:59:46.588Z,56
2017-07-09T08:00:27.116Z,56.38
2017-07-09T08:01:07.656Z,55.9
2017-07-09T08:01:48.198Z,56
2017-07-09T08:02:28.763Z,56.1
2017-07-09T08:03:09.298Z,56.1
2017-07-09T08:03:49.836Z,56.1
2017-07-09T08:04:30.376Z,56.16
2017-07-09T08:05:10.892Z,56.36
2017-07-09T08:05:51.419Z,56.36
2017-07-09T08:06:31.961Z,56.56
2017-07-09T08:07:12.495Z,57.14
2017-07-09T08:07:53.018Z,56.75
2017-07-09T08:08:33.542Z,57.04
2017-07-09T08:09:14.069Z,57.24
2017-07-09T08:09:54.618Z,57.11
2017-07-09T08:10:35.135Z,57.31
2017-07-09T08:11:15.657Z,58.28
2017-07-09T08:11:56.202Z,57.99
2017-07-09T08:12:36.722Z,57.4
2017-07-09T08:13:17.254Z,57.89
2017-07-09T08:13:57.786Z,57.21
2017-07-09T08:14:38.327Z,57.6
2017-07-09T08:15:18.867Z,57.5
2017-07-09T08:15:59.394Z,57.6
2017-07-09T08:16:39.933Z,57.4
2017-07-09T08:17:20.462Z,57.11
2017-07-09T08:18:00.998Z,56.85
2017-07-09T08:18:41.504Z,57.14
2017-07-09T08:19:22.730Z,57.43
2017-07-09T08:20:02.569Z,57.04
2017-07-09T08:20:43.109Z,57.24
2017-07-09T08:21:23.643Z,56.1
2017-07-09T08:22:04.173Z,56.1
2017-07-09T08:22:44.691Z,56.1
2017-07-09T08:23:25.213Z,55.8
2017-07-09T08:24:05.738Z,55.41
2017-07-09T08:24:46.293Z,55.51
2017-07-09T08:25:26.821Z,55.51
2017-07-09T08:26:07.357Z,56.46
2017-07-09T08:26:47.877Z,56.65
2017-07-09T08:27:28.415Z,56.26
2017-07-09T08:28:08.944Z,56.62
2017-07-09T08:28:49.475Z,56.36
2017-07-09T08:29:30.019Z,56.56
2017-07-09T08:30:10.548Z,56.56
2017-07-09T08:30:51.084Z,56.65
2017-07-09T08:31:31.634Z,56.75
2017-07-09T08:32:12.182Z,56.2
2017-07-09T08:32:52.729Z,56.38
2017-07-09T08:33:33.452Z,56.1
2017-07-09T08:34:14.012Z,56.38
2017-07-09T08:34:54.561Z,55.8
2017-07-09T08:35:35.092Z,55.71
2017-07-09T08:36:15.621Z,55.8
2017-07-09T08:36:56.164Z,55.24
2017-07-09T08:37:36.702Z,55.05
2017-07-09T08:38:17.248Z,55.41
2017-07-09T08:38:57.787Z,55.71
2017-07-09T08:39:38.319Z,55.41
2017-07-09T08:40:18.830Z,55.61
2017-07-09T08:40:59.358Z,55.9
2017-07-09T08:41:39.898Z,55.61
2017-07-09T08:42:20.524Z,56.38
2017-07-09T08:43:01.050Z,55.9
2017-07-09T08:43:41.582Z,56.29
2017-07-09T08:44:22.105Z,56.29
2017-07-09T08:45:02.654Z,55.61
2017-07-09T08:45:43.194Z,55.63
2017-07-09T08:46:23.724Z,55.24
2017-07-09T08:47:04.262Z,54.85
2017-07-09T08:47:44.770Z,54.85
2017-07-09T08:48:25.317Z,55.15
2017-07-09T08:49:05.853Z,55.44
2017-07-09T08:49:46.382Z,54.69
2017-07-09T08:50:26.905Z,54.98
2017-07-09T08:51:07.433Z,54.95
2017-07-09T08:51:47.963Z,54.79
2017-07-09T08:52:28.504Z,54.49
2017-07-09T08:53:09.044Z,54.59
2017-07-09T08:53:49.565Z,54.49
2017-07-09T08:54:30.099Z,54.79
2017-07-09T08:55:10.628Z,54.39
2017-07-09T08:55:51.153Z,54